Time;durP1;ratioP1;P1;durP2;ratioP2;P2;SDS_P1;SDS_P2;PMS_P1;PMS_P2;Temp;Humidity;BMP_temperature;BMP_pressure;BME280_temperature;BME280_humidity;BME280_pressure;Samples;Min_cycle;Max_cycle;Signal;HPM_P1;HPM_P2
2023/05/31 00:00:32;;;;;;;4.23;1.60;;;;;;;;;;6159955;23;20432;-93
2023/05/31 00:02:58;;;;;;;6.00;2.27;;;;;;;;;;6158990;23;20429;-91
2023/05/31 00:05:24;;;;;;;2.50;1.60;;;;;;;;;;6161326;23;20383;-92
2023/05/31 00:07:50;;;;;;;5.83;1.97;;;;;;;;;;6161377;23;20420;-92
2023/05/31 00:10:16;;;;;;;6.43;1.80;;;;;;;;;;6159429;23;20480;-92
2023/05/31 00:12:42;;;;;;;8.23;2.30;;;;;;;;;;6160266;23;20380;-93
2023/05/31 00:15:08;;;;;;;5.20;2.27;;;;;;;;;;6161456;23;20780;-92
2023/05/31 00:17:36;;;;;;;3.57;1.70;;;;;;;;;;6163082;23;20380;-91
2023/05/31 00:20:02;;;;;;;2.97;1.83;;;;;;;;;;6130179;23;20381;-92
2023/05/31 00:22:28;;;;;;;4.00;1.77;;;;;;;;;;6104690;23;21263;-93
2023/05/31 00:24:55;;;;;;;3.17;1.87;;;;;;;;;;6105551;23;20385;-94
2023/05/31 00:27:21;;;;;;;9.43;2.30;;;;;;;;;;6106219;23;21336;-94
2023/05/31 00:29:47;;;;;;;3.40;2.00;;;;;;;;;;6104829;23;20381;-94
2023/05/31 00:32:13;;;;;;;3.17;1.77;;;;;;;;;;6105607;23;20365;-92
2023/05/31 00:34:39;;;;;;;9.33;2.23;;;;;;;;;;6105930;23;20392;-93
2023/05/31 00:37:05;;;;;;;2.93;1.43;;;;;;;;;;6105154;23;20476;-92
2023/05/31 00:39:31;;;;;;;3.33;1.83;;;;;;;;;;6102283;23;20396;-91
2023/05/31 00:41:57;;;;;;;2.53;1.50;;;;;;;;;;6102575;23;20376;-92
2023/05/31 00:44:23;;;;;;;2.73;1.73;;;;;;;;;;6106144;23;20413;-91
2023/05/31 00:46:49;;;;;;;3.70;2.20;;;;;;;;;;6104750;23;20501;-91
2023/05/31 00:49:15;;;;;;;5.53;1.70;;;;;;;;;;6107808;23;20493;-91
2023/05/31 00:51:41;;;;;;;3.30;1.90;;;;;;;;;;6106628;23;20400;-92
2023/05/31 00:54:07;;;;;;;2.43;2.17;;;;;;;;;;6104943;23;21035;-92
2023/05/31 00:56:33;;;;;;;2.53;1.70;;;;;;;;;;6104527;23;20381;-93
2023/05/31 00:59:00;;;;;;;5.20;1.87;;;;;;;;;;6104753;23;20469;-92
2023/05/31 01:01:26;;;;;;;2.63;1.87;;;;;;;;;;6104391;23;20385;-94
2023/05/31 01:03:52;;;;;;;3.10;1.60;;;;;;;;;;6104781;23;20444;-92
2023/05/31 01:06:18;;;;;;;4.20;1.67;;;;;;;;;;6107526;23;20448;-91
2023/05/31 01:08:44;;;;;;;2.57;1.50;;;;;;;;;;6108064;23;20381;-92
2023/05/31 01:11:12;;;;;;;8.63;1.80;;;;;;;;;;6153045;23;20376;-91
2023/05/31 01:13:48;;;;;;;2.83;1.50;;;;;;;;;;6162604;23;20387;-92
2023/05/31 01:16:17;;;;;;;2.93;1.60;;;;;;;;;;6160878;23;20518;-93
2023/05/31 01:18:44;;;;;;;1.93;1.30;;;;;;;;;;6164894;23;20380;-93
2023/05/31 01:21:10;;;;;;;4.40;1.67;;;;;;;;;;6161678;23;20394;-92
2023/05/31 01:23:39;;;;;;;3.13;1.50;;;;;;;;;;6160558;23;20455;-91
2023/05/31 01:26:13;;;;;;;13.80;2.70;;;;;;;;;;6187644;23;20411;-91
2023/05/31 01:28:39;;;;;;;3.43;2.40;;;;;;;;;;6188061;23;20392;-91
2023/05/31 01:31:06;;;;;;;3.83;1.87;;;;;;;;;;6162215;23;20380;-92
2023/05/31 01:33:32;;;;;;;5.37;2.13;;;;;;;;;;6160239;23;20440;-92
2023/05/31 01:35:58;;;;;;;3.00;1.90;;;;;;;;;;6161182;23;20399;-94
2023/05/31 01:38:24;;;;;;;2.83;1.80;;;;;;;;;;6162537;23;20379;-92
2023/05/31 01:40:50;;;;;;;6.13;1.97;;;;;;;;;;6161365;23;20470;-92
2023/05/31 01:43:16;;;;;;;2.90;1.63;;;;;;;;;;6161161;23;20376;-90
2023/05/31 01:45:42;;;;;;;2.77;1.60;;;;;;;;;;6162119;23;20390;-92
2023/05/31 01:48:08;;;;;;;2.93;1.80;;;;;;;;;;6162305;23;20478;-91
2023/05/31 01:50:34;;;;;;;5.53;1.70;;;;;;;;;;6162559;23;20384;-92
2023/05/31 01:53:00;;;;;;;3.33;1.83;;;;;;;;;;6161928;23;20520;-93
2023/05/31 01:55:26;;;;;;;4.73;1.97;;;;;;;;;;6163910;23;20439;-93
2023/05/31 01:57:52;;;;;;;2.93;1.50;;;;;;;;;;6161472;23;20414;-93
2023/05/31 02:00:18;;;;;;;7.40;1.90;;;;;;;;;;6162353;23;20403;-92
2023/05/31 02:02:44;;;;;;;4.63;2.00;;;;;;;;;;6161649;23;20388;-91
2023/05/31 02:05:13;;;;;;;3.70;1.90;;;;;;;;;;6158500;23;20368;-92
2023/05/31 02:07:40;;;;;;;3.87;1.90;;;;;;;;;;6159594;23;20416;-92
2023/05/31 02:10:06;;;;;;;3.20;1.67;;;;;;;;;;6159709;23;20386;-92
2023/05/31 02:12:32;;;;;;;3.73;1.63;;;;;;;;;;6182671;23;20388;-92
2023/05/31 02:14:58;;;;;;;3.53;2.00;;;;;;;;;;6159114;23;20690;-92
2023/05/31 02:17:24;;;;;;;5.50;2.07;;;;;;;;;;6159318;23;20399;-92
2023/05/31 02:19:51;;;;;;;4.10;1.50;;;;;;;;;;6157896;23;20449;-92
2023/05/31 02:22:17;;;;;;;5.13;2.00;;;;;;;;;;6159194;23;20456;-92
2023/05/31 02:24:43;;;;;;;3.00;1.60;;;;;;;;;;6162833;23;20373;-92
2023/05/31 02:27:10;;;;;;;2.10;1.40;;;;;;;;;;6161310;23;20461;-93
2023/05/31 02:29:35;;;;;;;3.83;2.03;;;;;;;;;;6161598;23;20390;-93
2023/05/31 02:32:01;;;;;;;4.00;1.60;;;;;;;;;;6160179;23;20415;-92
2023/05/31 02:34:28;;;;;;;4.07;2.63;;;;;;;;;;6160773;23;20376;-92
2023/05/31 02:36:54;;;;;;;2.83;1.80;;;;;;;;;;6159955;23;20384;-92
2023/05/31 02:39:20;;;;;;;4.50;1.97;;;;;;;;;;6186074;23;20352;-93
2023/05/31 02:41:46;;;;;;;3.40;1.70;;;;;;;;;;6161466;23;20380;-92
2023/05/31 02:44:13;;;;;;;5.93;1.97;;;;;;;;;;6158752;23;20372;-91
2023/05/31 02:46:39;;;;;;;3.23;2.00;;;;;;;;;;6159984;23;20426;-92
2023/05/31 02:49:06;;;;;;;4.40;2.40;;;;;;;;;;6163651;23;20456;-93
2023/05/31 02:51:32;;;;;;;6.90;2.07;;;;;;;;;;6159133;23;20384;-92
2023/05/31 02:53:58;;;;;;;5.33;2.13;;;;;;;;;;6161767;23;20407;-93
2023/05/31 02:56:24;;;;;;;3.13;1.83;;;;;;;;;;6162224;23;20431;-93
2023/05/31 02:58:50;;;;;;;4.00;2.30;;;;;;;;;;6163817;23;20423;-91
2023/05/31 03:01:16;;;;;;;7.13;2.27;;;;;;;;;;6162755;23;20391;-93
2023/05/31 03:03:42;;;;;;;2.97;1.50;;;;;;;;;;6161190;23;20382;-94
2023/05/31 03:06:08;;;;;;;4.13;2.23;;;;;;;;;;6161065;23;20380;-91
2023/05/31 03:08:34;;;;;;;3.10;1.70;;;;;;;;;;6162444;23;20427;-93
2023/05/31 03:11:00;;;;;;;3.10;1.90;;;;;;;;;;6160935;23;20373;-93
2023/05/31 03:13:26;;;;;;;3.77;1.80;;;;;;;;;;6163668;23;20434;-92
2023/05/31 03:15:52;;;;;;;6.23;2.03;;;;;;;;;;6163715;23;20387;-93
2023/05/31 03:18:18;;;;;;;8.27;2.13;;;;;;;;;;6163049;23;20454;-93
2023/05/31 03:20:44;;;;;;;2.87;2.20;;;;;;;;;;6164467;23;20418;-92
2023/05/31 03:23:10;;;;;;;5.13;1.77;;;;;;;;;;6161757;23;20421;-91
2023/05/31 03:25:36;;;;;;;3.03;1.77;;;;;;;;;;6159392;23;20384;-92
2023/05/31 03:28:03;;;;;;;2.43;1.70;;;;;;;;;;6161914;23;20846;-92
2023/05/31 03:30:29;;;;;;;3.37;1.60;;;;;;;;;;6164987;23;20384;-91
2023/05/31 03:32:55;;;;;;;3.07;1.90;;;;;;;;;;6160440;23;21002;-91
2023/05/31 03:35:21;;;;;;;2.83;1.90;;;;;;;;;;6161498;23;20380;-92
2023/05/31 03:37:47;;;;;;;4.23;2.23;;;;;;;;;;6161774;23;20454;-92
2023/05/31 03:40:13;;;;;;;4.13;1.97;;;;;;;;;;6163934;23;20372;-92
2023/05/31 03:42:39;;;;;;;3.60;2.00;;;;;;;;;;6163773;23;20407;-92
2023/05/31 03:45:05;;;;;;;5.33;1.77;;;;;;;;;;6163544;23;20478;-92
2023/05/31 03:47:31;;;;;;;5.80;2.13;;;;;;;;;;6162577;23;20427;-92
2023/05/31 03:49:57;;;;;;;5.00;2.30;;;;;;;;;;6163877;23;20887;-92
2023/05/31 03:52:23;;;;;;;4.10;1.63;;;;;;;;;;6162414;23;20380;-90
2023/05/31 03:54:49;;;;;;;4.40;2.00;;;;;;;;;;6163144;23;20393;-92
2023/05/31 03:57:16;;;;;;;3.43;1.97;;;;;;;;;;6163947;23;20403;-92
2023/05/31 03:59:42;;;;;;;3.80;2.00;;;;;;;;;;6163234;23;20479;-92
2023/05/31 04:02:08;;;;;;;2.53;1.40;;;;;;;;;;6163120;23;20410;-91
2023/05/31 04:04:34;;;;;;;3.47;1.80;;;;;;;;;;6163033;23;20693;-92
2023/05/31 04:07:00;;;;;;;2.40;1.80;;;;;;;;;;6162484;23;20498;-92
2023/05/31 04:09:26;;;;;;;5.00;2.30;;;;;;;;;;6163994;23;20368;-92
2023/05/31 04:11:51;;;;;;;5.17;1.60;;;;;;;;;;6163425;23;20399;-91
2023/05/31 04:14:18;;;;;;;3.30;1.70;;;;;;;;;;6162164;23;20840;-91
2023/05/31 04:16:43;;;;;;;3.70;1.90;;;;;;;;;;6160998;23;20390;-91
2023/05/31 04:19:10;;;;;;;3.63;1.77;;;;;;;;;;6163014;23;20415;-92
2023/05/31 04:21:36;;;;;;;2.47;1.93;;;;;;;;;;6162878;23;20470;-92
2023/05/31 04:24:02;;;;;;;2.77;1.80;;;;;;;;;;6162437;23;20415;-92
2023/05/31 04:26:29;;;;;;;3.40;1.80;;;;;;;;;;6163325;23;20416;-92
2023/05/31 04:28:55;;;;;;;3.20;2.10;;;;;;;;;;6162947;23;20380;-92
2023/05/31 04:31:29;;;;;;;5.50;2.20;;;;;;;;;;6164239;23;20474;-92
2023/05/31 04:33:57;;;;;;;8.23;2.40;;;;;;;;;;6165165;23;20368;-92
2023/05/31 04:36:26;;;;;;;3.70;2.43;;;;;;;;;;6167866;23;20380;-92
2023/05/31 04:38:55;;;;;;;3.80;1.90;;;;;;;;;;6164136;23;20383;-92
2023/05/31 04:41:26;;;;;;;2.90;1.83;;;;;;;;;;6167292;23;20399;-92
2023/05/31 04:43:56;;;;;;;3.37;1.37;;;;;;;;;;6166784;23;20423;-92
2023/05/31 04:46:24;;;;;;;5.43;2.07;;;;;;;;;;6191471;23;20356;-92
2023/05/31 04:48:50;;;;;;;4.20;1.90;;;;;;;;;;6165936;23;20487;-92
2023/05/31 04:51:17;;;;;;;8.23;1.80;;;;;;;;;;6164575;23;20387;-91
2023/05/31 04:53:43;;;;;;;3.13;1.90;;;;;;;;;;6164730;23;20430;-92
2023/05/31 04:56:12;;;;;;;3.83;1.87;;;;;;;;;;6190297;23;20376;-94
2023/05/31 04:58:38;;;;;;;5.70;2.20;;;;;;;;;;6165531;23;20400;-92
2023/05/31 05:01:04;;;;;;;4.30;2.20;;;;;;;;;;6166109;23;20502;-92
2023/05/31 05:03:31;;;;;;;2.57;1.50;;;;;;;;;;6164936;23;20424;-91
2023/05/31 05:05:57;;;;;;;2.40;1.70;;;;;;;;;;6165747;23;20388;-91
2023/05/31 05:08:23;;;;;;;4.93;3.10;;;;;;;;;;6166171;23;20423;-91
2023/05/31 05:10:49;;;;;;;4.00;1.90;;;;;;;;;;6164103;23;20426;-91
2023/05/31 05:13:16;;;;;;;6.30;1.87;;;;;;;;;;6162527;23;20392;-91
2023/05/31 05:15:42;;;;;;;3.33;2.43;;;;;;;;;;6162791;23;20434;-92
2023/05/31 05:18:08;;;;;;;5.80;1.93;;;;;;;;;;6163849;23;20384;-92
2023/05/31 05:20:34;;;;;;;4.23;1.80;;;;;;;;;;6165526;23;20390;-92
2023/05/31 05:23:06;;;;;;;4.13;1.97;;;;;;;;;;6162773;23;20427;-92
2023/05/31 05:25:32;;;;;;;2.30;1.67;;;;;;;;;;6163710;23;20381;-92
2023/05/31 05:27:58;;;;;;;4.80;1.73;;;;;;;;;;6164670;23;20570;-91
2023/05/31 05:30:25;;;;;;;6.73;1.90;;;;;;;;;;6165688;23;20439;-91
2023/05/31 05:32:51;;;;;;;1.93;1.53;;;;;;;;;;6162612;23;20782;-92
2023/05/31 05:35:17;;;;;;;4.20;1.70;;;;;;;;;;6162726;23;20408;-92
2023/05/31 05:37:43;;;;;;;5.43;2.87;;;;;;;;;;6188416;23;20995;-92
2023/05/31 05:40:09;;;;;;;3.37;1.50;;;;;;;;;;6167118;23;20443;-91
2023/05/31 05:42:38;;;;;;;2.40;1.90;;;;;;;;;;6163954;23;20452;-91
2023/05/31 05:45:05;;;;;;;4.37;1.97;;;;;;;;;;6164164;23;20383;-91
2023/05/31 05:47:31;;;;;;;2.57;1.60;;;;;;;;;;6163559;23;20430;-91
2023/05/31 05:49:57;;;;;;;5.07;2.67;;;;;;;;;;6170736;23;20384;-90
2023/05/31 05:52:23;;;;;;;6.20;1.97;;;;;;;;;;6164198;23;20418;-91
2023/05/31 05:54:49;;;;;;;4.00;1.73;;;;;;;;;;6164282;23;20420;-91
2023/05/31 05:57:15;;;;;;;2.60;1.60;;;;;;;;;;6163826;23;20376;-91
2023/05/31 05:59:44;;;;;;;2.50;1.60;;;;;;;;;;6160974;23;20407;-91
2023/05/31 06:02:10;;;;;;;3.87;1.87;;;;;;;;;;6162794;23;20399;-91
2023/05/31 06:04:36;;;;;;;2.30;1.30;;;;;;;;;;6163466;23;20392;-91
2023/05/31 06:07:02;;;;;;;9.67;2.20;;;;;;;;;;6162528;23;20423;-92
2023/05/31 06:09:28;;;;;;;5.40;1.93;;;;;;;;;;6163516;23;20372;-91
2023/05/31 06:11:54;;;;;;;4.10;2.13;;;;;;;;;;6164514;23;20406;-91
2023/05/31 06:14:20;;;;;;;2.53;1.77;;;;;;;;;;6160739;23;20431;-92
2023/05/31 06:16:46;;;;;;;4.40;2.57;;;;;;;;;;6165792;23;20862;-91
2023/05/31 06:19:12;;;;;;;4.40;2.50;;;;;;;;;;6163391;23;20392;-92
2023/05/31 06:21:38;;;;;;;3.43;2.03;;;;;;;;;;6164739;23;20391;-92
2023/05/31 06:24:04;;;;;;;4.53;1.70;;;;;;;;;;6163788;23;20396;-93
2023/05/31 06:26:30;;;;;;;4.60;2.30;;;;;;;;;;6164003;23;20376;-94
2023/05/31 06:29:03;;;;;;;4.20;2.10;;;;;;;;;;6188431;23;20371;-93
2023/05/31 06:31:30;;;;;;;6.53;2.43;;;;;;;;;;6167375;23;20454;-89
2023/05/31 06:33:56;;;;;;;3.67;2.30;;;;;;;;;;6160562;23;20915;-89
2023/05/31 06:36:22;;;;;;;6.00;2.23;;;;;;;;;;6187084;23;20431;-89
2023/05/31 06:38:49;;;;;;;11.40;2.47;;;;;;;;;;6186119;23;20392;-90
2023/05/31 06:41:15;;;;;;;3.70;2.70;;;;;;;;;;6163554;23;20415;-89
2023/05/31 06:43:41;;;;;;;5.10;2.17;;;;;;;;;;6161300;23;20376;-85
2023/05/31 06:46:10;;;;;;;5.17;2.20;;;;;;;;;;6161431;23;20380;-87
2023/05/31 06:48:36;;;;;;;12.00;2.50;;;;;;;;;;6159663;23;20491;-86
2023/05/31 06:51:02;;;;;;;5.20;2.47;;;;;;;;;;6164775;23;20446;-88
2023/05/31 06:53:28;;;;;;;2.23;1.57;;;;;;;;;;6160024;23;20419;-87
2023/05/31 06:55:54;;;;;;;6.80;2.20;;;;;;;;;;6185882;23;20415;-87
2023/05/31 06:58:20;;;;;;;4.53;1.77;;;;;;;;;;6186345;23;20710;-88
2023/05/31 07:00:46;;;;;;;4.30;2.70;;;;;;;;;;6162800;23;20418;-88
2023/05/31 07:03:12;;;;;;;3.60;2.03;;;;;;;;;;6161336;23;20722;-88
2023/05/31 07:05:40;;;;;;;3.73;2.27;;;;;;;;;;6160851;23;20387;-88
2023/05/31 07:08:06;;;;;;;7.37;2.30;;;;;;;;;;6161524;23;20423;-86
2023/05/31 07:10:33;;;;;;;3.60;1.70;;;;;;;;;;6161278;23;21119;-87
2023/05/31 07:12:59;;;;;;;3.73;2.20;;;;;;;;;;6186215;23;20876;-86
2023/05/31 07:15:25;;;;;;;7.53;2.40;;;;;;;;;;6185150;23;20368;-87
2023/05/31 07:17:51;;;;;;;5.57;2.00;;;;;;;;;;6185758;23;20436;-87
2023/05/31 07:20:17;;;;;;;7.40;1.90;;;;;;;;;;6162302;23;20399;-87
2023/05/31 07:22:43;;;;;;;3.17;1.93;;;;;;;;;;6185623;23;20426;-88
2023/05/31 07:25:09;;;;;;;2.60;2.00;;;;;;;;;;6160901;23;20384;-88
2023/05/31 07:27:35;;;;;;;5.00;2.13;;;;;;;;;;6161051;23;20414;-87
2023/05/31 07:30:01;;;;;;;3.30;2.20;;;;;;;;;;6160084;23;20380;-87
2023/05/31 07:32:27;;;;;;;4.00;1.90;;;;;;;;;;6186440;23;20364;-88
2023/05/31 07:34:53;;;;;;;5.07;2.50;;;;;;;;;;6158989;23;20451;-88
2023/05/31 07:37:19;;;;;;;3.93;2.10;;;;;;;;;;6159618;23;20385;-87
2023/05/31 07:39:45;;;;;;;7.53;1.77;;;;;;;;;;6160200;23;20390;-87
2023/05/31 07:42:12;;;;;;;3.70;2.50;;;;;;;;;;6161902;23;20438;-88
2023/05/31 07:44:41;;;;;;;4.70;2.50;;;;;;;;;;6159772;23;20376;-88
2023/05/31 07:47:07;;;;;;;5.17;2.03;;;;;;;;;;6159603;23;20428;-88
2023/05/31 07:49:33;;;;;;;3.97;2.30;;;;;;;;;;6161079;23;20389;-88
2023/05/31 07:51:59;;;;;;;6.93;2.07;;;;;;;;;;6188311;23;20441;-90
2023/05/31 07:54:25;;;;;;;4.13;1.90;;;;;;;;;;6160418;23;20922;-88
2023/05/31 07:56:51;;;;;;;4.00;2.30;;;;;;;;;;6161799;23;20387;-88
2023/05/31 07:59:17;;;;;;;4.77;2.50;;;;;;;;;;6159794;23;20462;-88
2023/05/31 08:01:44;;;;;;;4.20;2.30;;;;;;;;;;6162611;23;20459;-86
2023/05/31 08:04:10;;;;;;;6.60;2.00;;;;;;;;;;6159998;23;20379;-87
2023/05/31 08:06:36;;;;;;;3.10;2.30;;;;;;;;;;6161923;23;20364;-86
2023/05/31 08:09:05;;;;;;;4.90;2.67;;;;;;;;;;6159779;23;20423;-86
2023/05/31 08:11:31;;;;;;;3.13;2.40;;;;;;;;;;6162521;23;20395;-87
2023/05/31 08:13:56;;;;;;;9.30;2.67;;;;;;;;;;6159136;23;20380;-87
2023/05/31 08:16:22;;;;;;;4.37;2.40;;;;;;;;;;6159968;23;20376;-87
2023/05/31 08:18:48;;;;;;;3.60;2.33;;;;;;;;;;6158557;23;20384;-86
2023/05/31 08:21:15;;;;;;;10.17;2.43;;;;;;;;;;6161089;23;20376;-84
2023/05/31 08:23:43;;;;;;;5.83;2.70;;;;;;;;;;6156809;23;20384;-89
2023/05/31 08:26:09;;;;;;;4.63;2.77;;;;;;;;;;6163272;23;20376;-86
2023/05/31 08:28:35;;;;;;;6.90;2.77;;;;;;;;;;6159936;23;20467;-88
2023/05/31 08:31:01;;;;;;;4.97;2.57;;;;;;;;;;6187271;23;20364;-86
2023/05/31 08:33:31;;;;;;;7.83;2.27;;;;;;;;;;6161086;23;20387;-86
2023/05/31 08:36:01;;;;;;;4.70;2.23;;;;;;;;;;6162239;23;20403;-86
2023/05/31 08:38:30;;;;;;;4.40;2.63;;;;;;;;;;6161778;23;20379;-86
2023/05/31 08:41:01;;;;;;;5.20;2.87;;;;;;;;;;6161395;23;20384;-86
2023/05/31 08:43:27;;;;;;;3.20;2.40;;;;;;;;;;6160497;23;20380;-86
2023/05/31 08:45:53;;;;;;;4.20;2.47;;;;;;;;;;6162014;23;20384;-88
2023/05/31 08:48:25;;;;;;;8.80;3.33;;;;;;;;;;6186598;23;20411;-87
2023/05/31 08:50:51;;;;;;;3.30;2.50;;;;;;;;;;6161841;23;20907;-87
2023/05/31 08:53:17;;;;;;;4.43;2.07;;;;;;;;;;6189025;23;20368;-86
2023/05/31 08:55:45;;;;;;;3.23;2.30;;;;;;;;;;6161809;23;20456;-87
2023/05/31 08:58:11;;;;;;;5.30;2.97;;;;;;;;;;6166878;23;20376;-90
2023/05/31 09:00:37;;;;;;;6.23;2.90;;;;;;;;;;6163221;23;20686;-86
2023/05/31 09:03:05;;;;;;;4.43;2.40;;;;;;;;;;6162255;23;20927;-87
2023/05/31 09:05:31;;;;;;;4.97;3.07;;;;;;;;;;6160351;23;20727;-88
2023/05/31 09:07:57;;;;;;;5.40;2.93;;;;;;;;;;6162409;23;20419;-86
2023/05/31 09:10:23;;;;;;;3.97;2.73;;;;;;;;;;6160897;23;20430;-89
2023/05/31 09:12:49;;;;;;;6.87;3.10;;;;;;;;;;6161224;23;20404;-86
2023/05/31 09:15:15;;;;;;;6.10;2.63;;;;;;;;;;6159522;23;20387;-86
2023/05/31 09:17:44;;;;;;;4.30;2.50;;;;;;;;;;6158422;23;20384;-86
2023/05/31 09:20:11;;;;;;;3.90;2.63;;;;;;;;;;6183461;23;20376;-87
2023/05/31 09:22:36;;;;;;;4.60;3.17;;;;;;;;;;6160247;23;20562;-86
2023/05/31 09:25:03;;;;;;;4.80;2.63;;;;;;;;;;6184943;23;20364;-88
2023/05/31 09:27:34;;;;;;;3.67;2.80;;;;;;;;;;6186010;23;20430;-88
2023/05/31 09:30:04;;;;;;;5.43;2.87;;;;;;;;;;6161155;23;20424;-86
2023/05/31 09:32:30;;;;;;;5.50;3.47;;;;;;;;;;6163579;23;20859;-86
2023/05/31 09:35:03;;;;;;;6.40;3.43;;;;;;;;;;6161599;23;20380;-86
2023/05/31 09:37:29;;;;;;;4.33;2.27;;;;;;;;;;6164278;23;20383;-87
2023/05/31 09:39:58;;;;;;;7.23;2.80;;;;;;;;;;6162061;23;20411;-88
2023/05/31 09:42:30;;;;;;;5.20;2.60;;;;;;;;;;6161115;23;20415;-85
2023/05/31 09:44:58;;;;;;;4.67;2.70;;;;;;;;;;6161377;23;20384;-85
2023/05/31 09:47:25;;;;;;;8.63;3.20;;;;;;;;;;6162543;23;20946;-88
2023/05/31 09:49:53;;;;;;;6.93;2.40;;;;;;;;;;6185486;23;20728;-88
2023/05/31 09:52:19;;;;;;;4.90;3.00;;;;;;;;;;6160071;23;20455;-87
2023/05/31 09:54:45;;;;;;;4.53;2.23;;;;;;;;;;6159173;23;20372;-89
2023/05/31 09:57:18;;;;;;;7.40;2.47;;;;;;;;;;6160940;23;20431;-88
2023/05/31 09:59:44;;;;;;;3.00;2.23;;;;;;;;;;6160812;23;20487;-88
2023/05/31 10:02:10;;;;;;;4.90;3.37;;;;;;;;;;6163456;23;20851;-87
2023/05/31 10:04:36;;;;;;;3.63;2.40;;;;;;;;;;6157877;23;20390;-88
2023/05/31 10:07:03;;;;;;;7.30;2.80;;;;;;;;;;6164635;23;20471;-87
2023/05/31 10:09:28;;;;;;;3.10;2.30;;;;;;;;;;6160630;23;20383;-87
2023/05/31 10:11:54;;;;;;;3.10;2.57;;;;;;;;;;6162312;23;20380;-87
2023/05/31 10:14:20;;;;;;;4.53;3.07;;;;;;;;;;6158717;23;20380;-85
2023/05/31 10:16:57;;;;;;;4.67;2.50;;;;;;;;;;6189775;23;20707;-94
2023/05/31 10:19:27;;;;;;;3.57;2.70;;;;;;;;;;6192063;23;20399;-93
2023/05/31 10:21:53;;;;;;;7.00;2.70;;;;;;;;;;6170037;23;20375;-93
2023/05/31 10:24:26;;;;;;;7.47;3.00;;;;;;;;;;6169104;23;20376;-88
2023/05/31 10:27:11;;;;;;;4.23;2.50;;;;;;;;;;6160107;23;20462;-90
2023/05/31 10:29:44;;;;;;;5.77;2.30;;;;;;;;;;6186630;23;20360;-92
2023/05/31 10:32:28;;;;;;;4.50;2.90;;;;;;;;;;6161698;23;20380;-89
2023/05/31 10:34:55;;;;;;;6.97;2.70;;;;;;;;;;6160151;23;20433;-85
2023/05/31 10:37:21;;;;;;;7.60;2.40;;;;;;;;;;6183887;23;20364;-86
2023/05/31 10:40:20;;;;;;;5.17;2.63;;;;;;;;;;6184242;23;20443;-87
2023/05/31 10:42:46;;;;;;;5.87;2.70;;;;;;;;;;6109039;23;20364;-86
2023/05/31 10:45:15;;;;;;;4.03;2.23;;;;;;;;;;6184297;23;20804;-85
2023/05/31 10:47:42;;;;;;;4.60;2.37;;;;;;;;;;6184674;23;20424;-86
2023/05/31 10:50:08;;;;;;;4.17;2.43;;;;;;;;;;6160155;23;20384;-86
2023/05/31 10:52:34;;;;;;;4.93;2.50;;;;;;;;;;6185286;23;20372;-85
2023/05/31 10:55:17;;;;;;;3.73;2.70;;;;;;;;;;6160642;23;20511;-86
2023/05/31 10:57:43;;;;;;;4.00;2.03;;;;;;;;;;6162617;23;20383;-85
2023/05/31 11:00:11;;;;;;;5.90;2.10;;;;;;;;;;6160447;23;20400;-86
2023/05/31 11:02:38;;;;;;;4.50;2.40;;;;;;;;;;6163379;23;20384;-87
2023/05/31 11:05:24;;;;;;;4.17;2.03;;;;;;;;;;6160729;23;20386;-87
2023/05/31 11:07:50;;;;;;;4.67;2.03;;;;;;;;;;6161366;23;20507;-88
2023/05/31 11:10:26;;;;;;;8.47;2.87;;;;;;;;;;6160500;23;20431;-87
2023/05/31 11:12:52;;;;;;;3.83;2.20;;;;;;;;;;6188976;23;20384;-87
2023/05/31 11:15:18;;;;;;;3.20;2.07;;;;;;;;;;6159200;23;20395;-87
2023/05/31 11:17:54;;;;;;;3.73;2.37;;;;;;;;;;6165107;23;20381;-88
2023/05/31 11:20:20;;;;;;;5.30;2.23;;;;;;;;;;6160232;23;20375;-87
2023/05/31 11:22:47;;;;;;;6.17;2.53;;;;;;;;;;6162352;23;20387;-90
2023/05/31 11:25:22;;;;;;;4.10;2.50;;;;;;;;;;6160481;23;20467;-88
2023/05/31 11:27:49;;;;;;;6.00;2.70;;;;;;;;;;6162272;23;20474;-90
2023/05/31 11:30:15;;;;;;;4.93;2.60;;;;;;;;;;6160643;23;20391;-89
2023/05/31 11:32:42;;;;;;;4.20;2.60;;;;;;;;;;6162396;23;20391;-89
2023/05/31 11:35:13;;;;;;;4.53;2.53;;;;;;;;;;6185883;23;20467;-89
2023/05/31 11:37:40;;;;;;;4.70;2.77;;;;;;;;;;6185842;23;20371;-89
2023/05/31 11:40:07;;;;;;;3.90;2.33;;;;;;;;;;6162354;23;20724;-89
2023/05/31 11:42:36;;;;;;;4.73;2.13;;;;;;;;;;6158273;23;20387;-86
2023/05/31 11:45:06;;;;;;;4.63;2.10;;;;;;;;;;6158032;23;20720;-86
2023/05/31 11:47:44;;;;;;;4.33;2.67;;;;;;;;;;6160345;23;20518;-86
2023/05/31 11:50:16;;;;;;;5.03;2.63;;;;;;;;;;6183125;23;20376;-83
2023/05/31 11:52:42;;;;;;;3.00;2.20;;;;;;;;;;6160927;23;20380;-84
2023/05/31 11:55:09;;;;;;;4.87;2.40;;;;;;;;;;6160344;23;20511;-86
2023/05/31 11:57:42;;;;;;;6.67;2.70;;;;;;;;;;6185631;23;20455;-85
2023/05/31 12:00:10;;;;;;;5.20;2.50;;;;;;;;;;6157663;23;20490;-84
2023/05/31 12:02:36;;;;;;;4.67;2.03;;;;;;;;;;6160866;23;20471;-84
2023/05/31 12:05:03;;;;;;;4.97;2.73;;;;;;;;;;6158574;23;20393;-85
2023/05/31 12:07:29;;;;;;;4.70;2.50;;;;;;;;;;6158218;23;20801;-84
2023/05/31 12:09:55;;;;;;;3.73;2.27;;;;;;;;;;6156960;23;20380;-88
2023/05/31 12:12:21;;;;;;;4.53;2.73;;;;;;;;;;6159650;23;20396;-85
2023/05/31 12:14:51;;;;;;;3.90;2.30;;;;;;;;;;6159513;23;20392;-85
2023/05/31 12:17:17;;;;;;;3.20;2.10;;;;;;;;;;6159496;23;20876;-86
2023/05/31 12:19:43;;;;;;;3.83;2.67;;;;;;;;;;6159332;23;20411;-85
2023/05/31 12:22:09;;;;;;;3.70;2.30;;;;;;;;;;6162281;23;20384;-84
2023/05/31 12:24:37;;;;;;;5.50;2.13;;;;;;;;;;6160984;23;20376;-86
2023/05/31 12:27:05;;;;;;;4.33;2.27;;;;;;;;;;6160569;23;20415;-85
2023/05/31 12:29:31;;;;;;;4.00;2.67;;;;;;;;;;6160993;23;20834;-86
2023/05/31 12:32:02;;;;;;;7.47;2.60;;;;;;;;;;6160388;23;20384;-86
2023/05/31 12:34:30;;;;;;;3.30;2.13;;;;;;;;;;6159580;23;20384;-87
2023/05/31 12:36:58;;;;;;;6.03;2.73;;;;;;;;;;6160024;23;20498;-87
2023/05/31 12:39:26;;;;;;;5.83;2.00;;;;;;;;;;6184064;23;20388;-85
2023/05/31 12:41:52;;;;;;;2.70;2.03;;;;;;;;;;6158251;23;20379;-87
2023/05/31 12:44:20;;;;;;;4.63;2.43;;;;;;;;;;6159141;23;20384;-86
2023/05/31 12:46:46;;;;;;;8.70;2.50;;;;;;;;;;6160614;23;20380;-86
2023/05/31 12:49:12;;;;;;;5.87;2.20;;;;;;;;;;6161532;23;20395;-87
2023/05/31 12:51:38;;;;;;;3.87;2.20;;;;;;;;;;6185178;23;20376;-89
2023/05/31 12:54:08;;;;;;;2.50;1.63;;;;;;;;;;6164167;23;20380;-86
2023/05/31 12:56:34;;;;;;;5.47;2.53;;;;;;;;;;6159854;23;20390;-88
2023/05/31 12:59:00;;;;;;;5.57;2.17;;;;;;;;;;6158213;23;20388;-85
2023/05/31 13:01:32;;;;;;;4.17;2.27;;;;;;;;;;6105335;23;20405;-86
2023/05/31 13:03:58;;;;;;;3.83;2.60;;;;;;;;;;6106764;23;20950;-86
2023/05/31 13:06:24;;;;;;;3.13;2.10;;;;;;;;;;6108453;23;20424;-88
2023/05/31 13:08:50;;;;;;;4.27;2.10;;;;;;;;;;6108510;23;20427;-87
2023/05/31 13:11:16;;;;;;;3.80;2.30;;;;;;;;;;6107717;23;20381;-86
2023/05/31 13:13:42;;;;;;;3.80;1.83;;;;;;;;;;6108967;23;20387;-86
2023/05/31 13:16:11;;;;;;;3.70;1.87;;;;;;;;;;6133833;23;20700;-86
2023/05/31 13:18:37;;;;;;;4.10;1.77;;;;;;;;;;6132241;23;20404;-86
2023/05/31 13:21:03;;;;;;;3.23;2.10;;;;;;;;;;6107629;23;20793;-86
2023/05/31 13:23:29;;;;;;;3.20;2.30;;;;;;;;;;6135235;23;20448;-86
2023/05/31 13:25:55;;;;;;;4.13;2.00;;;;;;;;;;6132798;23;20373;-87
2023/05/31 13:28:24;;;;;;;3.40;2.20;;;;;;;;;;6108028;23;20482;-86
2023/05/31 13:30:50;;;;;;;3.70;2.10;;;;;;;;;;6133775;23;21046;-86
2023/05/31 13:33:16;;;;;;;4.47;2.00;;;;;;;;;;6110454;23;20387;-86
2023/05/31 13:35:43;;;;;;;5.73;2.47;;;;;;;;;;6108811;23;20412;-87
2023/05/31 13:38:09;;;;;;;4.07;2.20;;;;;;;;;;6106339;23;20387;-83
2023/05/31 13:40:37;;;;;;;6.60;2.27;;;;;;;;;;6105772;23;21066;-85
2023/05/31 13:43:04;;;;;;;4.73;2.40;;;;;;;;;;6107326;23;20484;-85
2023/05/31 13:45:30;;;;;;;4.67;2.20;;;;;;;;;;6131706;23;20373;-84
2023/05/31 13:47:56;;;;;;;3.30;1.80;;;;;;;;;;6106219;23;20524;-81
2023/05/31 13:50:23;;;;;;;6.10;2.60;;;;;;;;;;6106621;23;20420;-81
2023/05/31 13:52:49;;;;;;;6.87;2.20;;;;;;;;;;6107050;23;20443;-83
2023/05/31 13:55:15;;;;;;;3.50;2.03;;;;;;;;;;6106111;23;20385;-82
2023/05/31 13:57:41;;;;;;;2.80;1.77;;;;;;;;;;6129715;23;20690;-84
2023/05/31 14:00:07;;;;;;;4.63;2.00;;;;;;;;;;6157366;23;20388;-83
2023/05/31 14:02:35;;;;;;;4.30;2.10;;;;;;;;;;6159388;23;20396;-82
2023/05/31 14:05:03;;;;;;;3.70;2.53;;;;;;;;;;6159170;23;20388;-82
2023/05/31 14:07:29;;;;;;;3.33;2.30;;;;;;;;;;6159537;23;20416;-84
2023/05/31 14:09:55;;;;;;;4.57;2.37;;;;;;;;;;6160440;23;20380;-82
2023/05/31 14:12:21;;;;;;;3.27;2.10;;;;;;;;;;6158509;23;20380;-82
2023/05/31 14:14:48;;;;;;;3.03;1.90;;;;;;;;;;6186330;23;20737;-85
2023/05/31 14:17:14;;;;;;;5.93;1.80;;;;;;;;;;6158925;23;20402;-82
2023/05/31 14:19:40;;;;;;;3.00;2.07;;;;;;;;;;6159997;23;20459;-84
2023/05/31 14:22:06;;;;;;;4.40;2.20;;;;;;;;;;6159192;23;20734;-83
2023/05/31 14:24:33;;;;;;;3.10;1.77;;;;;;;;;;6160085;23;20924;-85
2023/05/31 14:26:59;;;;;;;5.50;2.23;;;;;;;;;;6160043;23;20934;-84
2023/05/31 14:29:25;;;;;;;3.83;1.80;;;;;;;;;;6162534;23;20439;-83
2023/05/31 14:31:51;;;;;;;5.20;1.93;;;;;;;;;;6159206;23;20376;-82
2023/05/31 14:34:17;;;;;;;5.00;1.97;;;;;;;;;;6160357;23;20388;-83
2023/05/31 14:36:43;;;;;;;5.40;2.30;;;;;;;;;;6160293;23;20395;-83
2023/05/31 14:39:09;;;;;;;3.97;2.23;;;;;;;;;;6159464;23;20431;-81
2023/05/31 14:41:35;;;;;;;4.70;1.93;;;;;;;;;;6159488;23;20434;-81